Time;durP1;ratioP1;P1;durP2;ratioP2;P2;SDS_P1;SDS_P2;PMS_P1;PMS_P2;Temp;Humidity;BMP_temperature;BMP_pressure;BME280_temperature;BME280_humidity;BME280_pressure;Samples;Min_cycle;Max_cycle;Signal;HPM_P1;HPM_P2
2022/05/01 00:00:07;;;;;;;8.70;5.83;;;;;;;12.36;82.97;95106.59;5033860;28;20199;-86
2022/05/01 00:02:34;;;;;;;6.23;5.00;;;;;;;12.12;82.82;95084.00;5036034;28;20261;-86
2022/05/01 00:05:02;;;;;;;7.83;5.30;;;;;;;12.33;83.09;95114.06;5030213;28;20195;-81
2022/05/01 00:07:29;;;;;;;8.57;5.20;;;;;;;12.35;82.61;95110.22;5031308;28;20294;-81
2022/05/01 00:09:55;;;;;;;7.23;5.07;;;;;;;12.38;82.41;95116.84;5028825;28;20207;-82
2022/05/01 00:12:24;;;;;;;6.37;5.60;;;;;;;12.37;82.10;95116.03;5032803;28;20210;-82
2022/05/01 00:14:51;;;;;;;6.87;5.10;;;;;;;12.39;82.47;95100.16;5026946;28;20207;-82
2022/05/01 00:17:18;;;;;;;8.33;5.67;;;;;;;12.32;82.08;95096.84;5028160;28;20202;-81
2022/05/01 00:19:45;;;;;;;7.20;5.60;;;;;;;12.23;83.09;95101.56;5028060;28;20195;-82
2022/05/01 00:22:11;;;;;;;8.23;5.50;;;;;;;12.19;83.03;95097.78;5025714;28;20238;-81
2022/05/01 00:24:38;;;;;;;10.13;5.73;;;;;;;12.11;83.66;95087.66;5027943;28;20230;-85
2022/05/01 00:27:06;;;;;;;8.87;5.80;;;;;;;12.09;83.58;95083.66;5030815;28;20689;-86
2022/05/01 00:29:34;;;;;;;8.10;5.33;;;;;;;11.94;84.44;95063.97;5030878;28;20206;-86
2022/05/01 00:32:02;;;;;;;9.80;6.20;;;;;;;12.07;84.12;95086.47;5031272;28;20210;-86
2022/05/01 00:37:13;;;;;;;9.33;5.83;;;;;;;11.90;84.53;95065.41;5032449;28;20276;-86
2022/05/01 00:39:40;;;;;;;10.73;5.77;;;;;;;11.89;84.29;95057.78;5036575;28;20205;-84
2022/05/01 00:42:08;;;;;;;10.60;6.10;;;;;;;11.99;85.11;95084.16;5037304;28;20614;-83
2022/05/01 00:44:37;;;;;;;11.63;6.43;;;;;;;11.93;85.66;95085.81;5025895;28;20213;-84
2022/05/01 00:47:04;;;;;;;7.73;6.20;;;;;;;11.97;85.81;95086.19;5029419;28;20195;-84
2022/05/01 00:49:37;;;;;;;12.43;6.80;;;;;;;11.75;87.12;95083.16;5034533;28;20213;-85
2022/05/01 00:52:08;;;;;;;13.60;7.33;;;;;;;11.74;87.77;95081.59;5028193;28;20221;-84
2022/05/01 00:54:37;;;;;;;10.63;7.40;;;;;;;11.73;87.78;95079.19;5030059;28;20194;-84
2022/05/01 00:57:06;;;;;;;11.17;7.70;;;;;;;11.75;88.49;95082.38;5032005;28;20199;-85
2022/05/01 00:59:35;;;;;;;10.90;7.63;;;;;;;11.40;90.25;95069.00;5033023;28;20601;-84
2022/05/01 01:02:05;;;;;;;10.40;7.33;;;;;;;11.24;91.13;95077.34;5028405;28;20570;-84
2022/05/01 01:04:32;;;;;;;10.97;7.70;;;;;;;11.10;94.82;95081.06;5033677;28;20229;-85
2022/05/01 01:07:02;;;;;;;12.20;8.00;;;;;;;11.10;94.63;95081.06;5037663;28;20206;-85
2022/05/01 01:09:30;;;;;;;11.30;8.40;;;;;;;11.20;94.62;95082.19;5033176;28;20289;-86
2022/05/01 01:14:42;;;;;;;9.20;7.53;;;;;;;11.38;93.58;95084.06;5037097;28;20213;-84
2022/05/01 01:17:12;;;;;;;12.27;8.10;;;;;;;11.46;92.68;95080.41;5036242;28;20284;-84
2022/05/01 01:19:39;;;;;;;12.33;7.80;;;;;;;11.38;93.46;95078.84;5039767;28;20206;-85
2022/05/01 01:22:09;;;;;;;12.30;8.20;;;;;;;11.40;93.44;95077.63;5036116;28;20208;-85
2022/05/01 01:24:38;;;;;;;14.57;8.73;;;;;;;11.41;93.66;95083.63;5034901;28;20317;-82
2022/05/01 01:27:06;;;;;;;12.93;8.47;;;;;;;11.42;93.41;95080.03;5038788;28;20284;-81
2022/05/01 01:32:20;;;;;;;11.60;8.97;;;;;;;11.29;95.11;95073.13;5030878;28;20828;-81
2022/05/01 01:34:50;;;;;;;12.63;8.87;;;;;;;11.29;94.64;95059.31;5033788;28;20210;-81
2022/05/01 01:37:28;;;;;;;14.53;9.23;;;;;;;11.35;94.60;95059.25;5033146;28;20229;-82
2022/05/01 01:39:56;;;;;;;13.73;9.27;;;;;;;11.38;95.39;95076.25;5028265;28;20198;-81
2022/05/01 01:42:25;;;;;;;12.73;9.87;;;;;;;11.40;95.36;95067.22;5025735;28;20223;-81
2022/05/01 01:44:53;;;;;;;14.93;9.70;;;;;;;11.41;95.18;95065.41;5033756;28;20244;-81
2022/05/01 01:47:20;;;;;;;11.80;9.60;;;;;;;11.25;96.13;95064.16;5035189;28;20342;-79
2022/05/01 01:49:47;;;;;;;12.70;9.87;;;;;;;11.33;96.05;95065.69;5034621;28;20206;-81
2022/05/01 01:52:14;;;;;;;12.33;9.60;;;;;;;11.30;95.96;95064.31;5039761;28;20225;-81
2022/05/01 01:54:48;;;;;;;14.47;10.43;;;;;;;11.36;95.97;95068.66;5037054;28;20214;-82
2022/05/01 01:57:15;;;;;;;18.27;11.37;;;;;;;11.38;95.50;95066.63;5031664;28;20209;-81
2022/05/01 01:59:41;;;;;;;16.90;11.20;;;;;;;11.39;95.69;95067.44;5035189;28;20213;-80
2022/05/01 02:02:09;;;;;;;18.70;11.10;;;;;;;11.34;96.41;95057.66;5035628;28;20206;-81
2022/05/01 02:04:39;;;;;;;18.40;10.60;;;;;;;11.30;96.75;95055.69;5031945;28;20298;-81
2022/05/01 02:07:06;;;;;;;15.50;10.70;;;;;;;11.22;96.82;95043.75;5029314;28;20564;-81
2022/05/01 02:09:37;;;;;;;16.40;11.13;;;;;;;11.20;97.39;95052.75;5032938;28;20587;-81
2022/05/01 02:12:08;;;;;;;15.73;11.40;;;;;;;11.21;97.65;95057.78;5032338;28;20230;-81
2022/05/01 02:14:35;;;;;;;18.87;10.70;;;;;;;11.27;98.00;95056.94;5036231;28;20214;-80
2022/05/01 02:17:02;;;;;;;19.40;11.60;;;;;;;11.26;98.09;95055.31;5031941;28;20699;-81
2022/05/01 02:19:30;;;;;;;19.83;11.43;;;;;;;11.17;98.09;95042.78;5024843;28;20721;-79
2022/05/01 02:21:57;;;;;;;15.17;11.60;;;;;;;11.26;98.34;95052.72;5024749;28;20191;-80
2022/05/01 02:24:25;;;;;;;19.27;11.43;;;;;;;11.22;98.29;95050.75;5024063;28;20241;-80
2022/05/01 02:26:52;;;;;;;16.93;11.83;;;;;;;11.27;98.41;95051.72;5029427;28;20217;-80
2022/05/01 02:29:20;;;;;;;18.10;12.47;;;;;;;11.24;98.82;95054.75;5029899;28;20217;-79
2022/05/01 02:31:53;;;;;;;18.87;13.80;;;;;;;11.19;99.19;95053.78;5029187;28;20210;-82
2022/05/01 02:34:22;;;;;;;22.13;13.67;;;;;;;11.14;99.57;95053.63;5041001;28;20190;-84
2022/05/01 02:36:59;;;;;;;22.53;13.80;;;;;;;10.74;100.00;95042.66;5037822;28;20724;-82
2022/05/01 02:39:26;;;;;;;19.93;14.07;;;;;;;10.46;100.00;95044.81;5028233;28;20207;-83
2022/05/01 02:41:53;;;;;;;22.63;13.17;;;;;;;10.16;100.00;95029.75;5036452;28;20300;-82
2022/05/01 02:44:21;;;;;;;20.40;13.77;;;;;;;10.39;100.00;95051.88;5038666;28;20221;-83
2022/05/01 02:46:48;;;;;;;23.33;14.13;;;;;;;10.47;100.00;95047.22;5033674;28;20206;-82
2022/05/01 02:49:21;;;;;;;20.87;13.30;;;;;;;10.56;100.00;95042.59;5038576;28;20206;-84
2022/05/01 02:55:21;;;;;;;27.77;18.03;;;;;;;10.75;100.00;95044.28;5037682;28;20672;-84
2022/05/01 02:57:48;;;;;;;32.67;19.43;;;;;;;10.70;100.00;95031.91;5033050;28;20202;-85
2022/05/01 03:00:17;;;;;;;28.60;16.93;;;;;;;10.88;100.00;95056.41;5033430;28;20330;-84
2022/05/01 03:02:46;;;;;;;20.87;14.73;;;;;;;10.92;100.00;95055.75;5037775;28;20731;-85
2022/05/01 03:05:13;;;;;;;20.87;14.87;;;;;;;10.83;100.00;95057.81;5033616;28;20209;-84
2022/05/01 03:07:41;;;;;;;18.23;13.90;;;;;;;10.90;100.00;95063.00;5027504;28;20214;-82
2022/05/01 03:10:10;;;;;;;19.10;13.87;;;;;;;10.88;100.00;95048.59;5030810;28;20209;-82
2022/05/01 03:12:37;;;;;;;20.30;15.37;;;;;;;10.93;100.00;95057.38;5037753;28;20207;-82
2022/05/01 03:15:05;;;;;;;25.10;17.43;;;;;;;10.97;100.00;95061.13;5035978;28;20276;-82
2022/05/01 03:22:59;;;;;;;21.60;13.87;;;;;;;10.89;100.00;95053.59;5022499;28;20569;-84
2022/05/01 03:25:26;;;;;;;19.50;12.73;;;;;;;10.89;100.00;95060.56;5032427;28;20245;-84
2022/05/01 03:27:54;;;;;;;18.33;14.03;;;;;;;10.86;100.00;95061.00;5036566;28;20211;-83
2022/05/01 03:30:40;;;;;;;19.50;13.90;;;;;;;10.86;100.00;95063.59;5034590;28;20233;-84
2022/05/01 03:33:09;;;;;;;20.07;13.70;;;;;;;10.83;100.00;95068.22;5027573;28;20203;-85
2022/05/01 03:35:41;;;;;;;23.73;13.53;;;;;;;10.87;100.00;95073.81;5034988;28;20210;-84
2022/05/01 03:38:08;;;;;;;16.17;12.73;;;;;;;10.88;100.00;95075.38;5028445;28;20207;-83
2022/05/01 03:40:35;;;;;;;17.77;13.17;;;;;;;10.81;100.00;95085.84;5030005;28;20209;-84
2022/05/01 03:43:12;;;;;;;21.70;13.93;;;;;;;10.84;100.00;95089.81;5035989;28;20280;-85
2022/05/01 03:45:39;;;;;;;20.37;13.80;;;;;;;10.84;100.00;95089.81;5028501;28;20251;-84
2022/05/01 03:48:06;;;;;;;21.50;13.83;;;;;;;10.89;100.00;95092.59;5029571;28;20200;-83
2022/05/01 03:50:34;;;;;;;19.87;13.70;;;;;;;10.93;100.00;95098.97;5028518;28;21210;-83
2022/05/01 03:53:04;;;;;;;23.27;14.23;;;;;;;10.92;100.00;95099.97;5027753;28;20203;-82
2022/05/01 03:55:33;;;;;;;20.17;13.20;;;;;;;10.96;100.00;95098.56;5025103;28;20268;-81
2022/05/01 03:58:01;;;;;;;19.23;13.73;;;;;;;10.98;100.00;95093.94;5026750;28;20239;-82
2022/05/01 04:00:28;;;;;;;20.33;14.37;;;;;;;10.96;100.00;95093.34;5027763;28;20203;-82
2022/05/01 04:02:56;;;;;;;20.23;14.20;;;;;;;10.88;100.00;95096.19;5031718;28;20206;-83
2022/05/01 04:05:22;;;;;;;21.37;14.67;;;;;;;10.93;100.00;95101.56;5026075;28;20199;-82
2022/05/01 04:07:51;;;;;;;21.43;14.13;;;;;;;10.96;100.00;95105.56;5024703;28;20199;-83
2022/05/01 04:10:19;;;;;;;24.27;14.07;;;;;;;10.99;100.00;95112.94;5029976;28;20206;-82
2022/05/01 04:12:47;;;;;;;20.03;12.70;;;;;;;10.79;100.00;95120.84;5031318;28;20245;-85
2022/05/01 04:15:14;;;;;;;16.60;12.93;;;;;;;10.61;100.00;95115.53;5026709;28;20221;-81
2022/05/01 04:17:43;;;;;;;21.07;12.53;;;;;;;10.54;100.00;95123.34;5027013;28;20190;-84
2022/05/01 04:20:13;;;;;;;18.87;13.23;;;;;;;10.29;100.00;95119.84;5032735;28;20199;-83
2022/05/01 04:22:41;;;;;;;19.97;13.40;;;;;;;9.96;100.00;95119.88;5039038;28;20195;-87
2022/05/01 04:25:17;;;;;;;21.00;14.33;;;;;;;9.70;100.00;95118.09;5034936;28;20246;-86
2022/05/01 04:27:45;;;;;;;22.53;14.67;;;;;;;9.82;100.00;95122.69;5033146;28;20198;-86
2022/05/01 04:30:13;;;;;;;22.00;14.07;;;;;;;9.83;100.00;95101.72;5043073;28;20207;-86
2022/05/01 04:32:50;;;;;;;24.27;14.27;;;;;;;10.14;100.00;95129.66;5038683;28;20311;-86
2022/05/01 04:35:47;;;;;;;21.73;14.50;;;;;;;10.27;100.00;95124.44;5029045;28;20204;-84
2022/05/01 04:38:16;;;;;;;21.50;14.07;;;;;;;10.43;100.00;95123.19;5033362;28;20234;-85
2022/05/01 04:40:54;;;;;;;21.13;14.63;;;;;;;10.55;100.00;95122.34;5033319;28;20198;-85
2022/05/01 04:43:25;;;;;;;25.63;15.13;;;;;;;10.56;100.00;95121.31;5028989;28;20581;-84
2022/05/01 04:45:56;;;;;;;21.17;14.90;;;;;;;10.61;100.00;95108.53;5035842;28;20210;-85
2022/05/01 04:48:25;;;;;;;19.93;14.53;;;;;;;10.62;100.00;95099.72;5035428;28;20202;-86
2022/05/01 04:50:52;;;;;;;22.00;14.50;;;;;;;10.85;100.00;95106.22;5035923;28;20199;-81
2022/05/01 04:53:20;;;;;;;25.27;14.20;;;;;;;10.94;100.00;95102.38;5027619;28;20684;-81
2022/05/01 04:55:49;;;;;;;20.50;15.00;;;;;;;11.09;100.00;95102.88;5033097;28;20214;-81
2022/05/01 04:58:17;;;;;;;18.13;13.67;;;;;;;11.15;100.00;95096.81;5027594;28;20307;-78
2022/05/01 05:00:46;;;;;;;21.43;15.60;;;;;;;11.25;100.00;95105.78;5031368;28;20194;-80
2022/05/01 05:03:14;;;;;;;19.67;14.57;;;;;;;11.28;100.00;95097.53;5020646;28;20225;-74
2022/05/01 05:05:40;;;;;;;25.60;14.20;;;;;;;11.47;100.00;95111.41;5021953;28;20246;-75
2022/05/01 05:10:49;;;;;;;22.60;14.33;;;;;;;11.63;100.00;95116.09;4991857;28;20195;-75
2022/05/01 05:13:22;;;;;;;18.40;13.97;;;;;;;11.70;99.80;95116.88;5022081;28;20213;-76
2022/05/01 05:15:49;;;;;;;17.07;13.10;;;;;;;11.75;98.81;95122.22;5021646;28;20719;-74
2022/05/01 05:18:16;;;;;;;20.90;13.40;;;;;;;11.78;98.00;95123.59;5023934;28;20260;-74
2022/05/01 05:20:43;;;;;;;17.90;14.03;;;;;;;11.84;97.83;95128.78;5021846;28;20199;-74
2022/05/01 05:23:10;;;;;;;18.37;13.53;;;;;;;11.95;97.49;95129.88;5020940;28;20226;-74
2022/05/01 05:25:36;;;;;;;20.53;14.03;;;;;;;12.08;96.31;95128.97;5019844;28;20234;-73
2022/05/01 05:28:06;;;;;;;19.30;14.40;;;;;;;12.11;96.70;95129.34;5021965;28;20202;-73
2022/05/01 05:30:35;;;;;;;20.40;14.00;;;;;;;12.14;95.96;95122.88;5021602;28;20904;-74
2022/05/01 05:33:03;;;;;;;19.10;13.37;;;;;;;12.13;96.08;95126.50;5022295;28;20286;-74
2022/05/01 05:35:30;;;;;;;24.63;15.27;;;;;;;12.18;96.03;95129.28;5022045;28;20202;-74
2022/05/01 05:37:57;;;;;;;19.80;14.53;;;;;;;12.20;96.72;95137.66;5021809;28;20206;-73
2022/05/01 05:40:24;;;;;;;18.13;14.17;;;;;;;12.21;96.52;95128.81;5018329;28;20264;-75
2022/05/01 05:42:50;;;;;;;21.77;14.90;;;;;;;12.13;97.09;95127.31;5023508;28;20274;-74
2022/05/01 05:45:17;;;;;;;18.07;13.83;;;;;;;12.25;97.08;95133.41;5020832;28;20729;-74
2022/05/01 05:47:45;;;;;;;18.57;13.90;;;;;;;12.33;97.11;95122.69;5019946;28;20194;-74
2022/05/01 05:50:12;;;;;;;17.53;12.73;;;;;;;12.37;96.54;95118.63;5021523;28;20685;-74
2022/05/01 05:52:39;;;;;;;17.17;13.00;;;;;;;12.40;96.41;95122.63;5021768;28;20195;-75
2022/05/01 05:55:07;;;;;;;19.67;12.97;;;;;;;12.50;96.00;95126.31;5020789;28;20203;-75
2022/05/01 05:57:34;;;;;;;15.80;12.23;;;;;;;12.55;94.88;95123.06;5021269;28;20206;-75
2022/05/01 06:00:01;;;;;;;19.10;11.97;;;;;;;12.65;94.15;95131.16;5022080;28;20198;-75
2022/05/01 06:02:28;;;;;;;18.00;11.90;;;;;;;12.80;93.31;95128.97;5021759;28;20298;-74
2022/05/01 06:04:56;;;;;;;15.63;11.73;;;;;;;12.86;92.19;95127.28;5020072;28;20592;-75
2022/05/01 06:07:23;;;;;;;21.00;11.57;;;;;;;12.95;91.05;95136.41;5020284;28;20200;-75
2022/05/01 06:09:50;;;;;;;109.57;18.00;;;;;;;12.95;91.56;95144.25;5020122;28;20199;-75
2022/05/01 06:12:16;;;;;;;16.63;11.23;;;;;;;13.10;90.54;95144.69;5020198;28;20199;-74
2022/05/01 06:14:44;;;;;;;18.73;10.33;;;;;;;13.20;89.07;95150.16;5018753;28;20195;-73
2022/05/01 06:17:12;;;;;;;12.87;10.73;;;;;;;13.30;88.61;95147.03;5023235;28;20223;-73
2022/05/01 06:19:39;;;;;;;15.33;11.07;;;;;;;13.35;88.41;95141.91;5020673;28;20206;-76
2022/05/01 06:22:07;;;;;;;14.03;10.63;;;;;;;13.49;87.43;95145.94;5020199;28;20199;-75
2022/05/01 06:24:34;;;;;;;14.17;10.93;;;;;;;13.47;86.42;95133.09;5020691;28;20234;-75
2022/05/01 06:27:01;;;;;;;13.67;10.70;;;;;;;13.55;86.34;95142.44;5020856;28;20635;-79
2022/05/01 06:29:28;;;;;;;16.97;11.97;;;;;;;13.69;86.22;95143.00;5020586;28;20218;-78
2022/05/01 06:31:54;;;;;;;13.00;10.53;;;;;;;13.72;84.90;95142.56;5019879;28;20210;-78
2022/05/01 06:34:21;;;;;;;13.20;10.13;;;;;;;13.75;84.86;95142.91;5016719;28;20191;-75
2022/05/01 06:36:48;;;;;;;14.13;9.50;;;;;;;13.71;84.30;95151.44;5021553;28;20198;-73
2022/05/01 06:39:16;;;;;;;11.83;9.80;;;;;;;13.74;84.21;95151.00;5020479;28;20210;-76
2022/05/01 06:41:43;;;;;;;12.17;9.33;;;;;;;13.84;85.30;95152.03;5017998;28;20191;-73
2022/05/01 06:44:20;;;;;;;12.43;9.07;;;;;;;13.98;85.87;95139.53;5023705;28;20226;-76
2022/05/01 06:46:46;;;;;;;22.00;16.33;;;;;;;14.09;86.68;95133.50;5019995;28;20213;-77
2022/05/01 06:49:14;;;;;;;16.57;9.70;;;;;;;14.04;83.66;95131.59;5019151;28;20206;-77
2022/05/01 06:51:40;;;;;;;13.27;9.60;;;;;;;14.08;83.04;95150.22;5019766;28;20275;-78
2022/05/01 06:54:10;;;;;;;14.63;10.07;;;;;;;14.16;81.64;95142.84;5020803;28;20203;-76
2022/05/01 06:56:41;;;;;;;13.73;9.53;;;;;;;14.23;82.48;95142.72;5020797;28;20198;-76
2022/05/01 06:59:08;;;;;;;13.70;9.07;;;;;;;14.32;83.37;95146.59;5018364;28;20202;-76
2022/05/01 07:01:35;;;;;;;15.00;9.43;;;;;;;14.39;82.59;95139.44;5017703;28;20195;-78
2022/05/01 07:04:02;;;;;;;16.83;11.03;;;;;;;14.52;83.64;95133.97;5019378;28;20219;-78
2022/05/01 07:06:29;;;;;;;13.60;10.03;;;;;;;14.63;80.43;95137.59;5016562;28;20882;-77
2022/05/01 07:08:55;;;;;;;12.80;10.00;;;;;;;14.74;80.94;95137.56;5016409;28;20191;-77
2022/05/01 07:11:22;;;;;;;11.57;8.90;;;;;;;14.71;78.21;95132.00;5018645;28;20199;-76
2022/05/01 07:13:51;;;;;;;11.83;8.37;;;;;;;14.88;77.76;95134.69;5017531;28;20584;-77
2022/05/01 07:16:20;;;;;;;13.70;8.80;;;;;;;14.89;76.83;95123.97;5018370;28;20195;-77
2022/05/01 07:18:47;;;;;;;13.37;9.53;;;;;;;14.92;77.25;95135.81;5019317;28;20290;-77
2022/05/01 07:21:14;;;;;;;12.03;8.73;;;;;;;14.98;76.90;95148.75;5018314;28;20202;-77
2022/05/01 07:23:41;;;;;;;12.97;9.57;;;;;;;15.13;77.67;95145.63;5017210;28;20213;-77
2022/05/01 07:26:08;;;;;;;11.93;9.37;;;;;;;15.29;76.49;95144.91;5021213;28;20248;-75
2022/05/01 07:28:34;;;;;;;11.67;8.60;;;;;;;15.37;73.09;95148.94;5018720;28;20214;-76
2022/05/01 07:31:04;;;;;;;12.33;8.83;;;;;;;15.47;72.62;95133.47;5021244;28;20199;-77
2022/05/01 07:33:31;;;;;;;11.53;8.50;;;;;;;15.43;74.22;95135.72;5020226;28;20235;-75
2022/05/01 07:35:58;;;;;;;13.40;9.60;;;;;;;15.46;73.80;95142.31;5020450;28;20697;-76
2022/05/01 07:38:25;;;;;;;12.77;9.43;;;;;;;15.54;72.68;95127.03;5019397;28;20203;-79
2022/05/01 07:40:52;;;;;;;11.73;9.20;;;;;;;15.48;73.17;95132.41;5023795;28;20198;-80
2022/05/01 07:43:19;;;;;;;11.33;8.23;;;;;;;15.45;74.79;95120.53;5021612;28;20230;-79
2022/05/01 07:45:46;;;;;;;11.43;8.70;;;;;;;15.60;73.29;95133.94;5028826;28;20218;-81
2022/05/01 07:48:14;;;;;;;8.93;8.03;;;;;;;15.75;72.05;95146.50;5031202;28;20210;-80
2022/05/01 07:50:41;;;;;;;11.37;7.53;;;;;;;15.92;67.78;95136.81;5026343;28;20201;-80
2022/05/01 07:53:08;;;;;;;15.93;8.53;;;;;;;16.07;67.93;95139.69;5028017;28;20214;-80
2022/05/01 07:55:36;;;;;;;12.17;8.10;;;;;;;16.04;67.86;95144.59;5032172;28;20199;-83
2022/05/01 07:58:03;;;;;;;10.87;8.00;;;;;;;16.19;69.48;95142.97;5035844;28;20194;-79
2022/05/01 08:00:30;;;;;;;11.20;8.10;;;;;;;16.17;67.42;95131.94;5031401;28;20205;-78
2022/05/01 08:05:43;;;;;;;10.77;7.70;;;;;;;16.35;65.55;95144.81;5028010;28;20250;-78
2022/05/01 08:08:09;;;;;;;8.97;7.23;;;;;;;16.43;65.35;95144.38;5025731;28;20205;-77
2022/05/01 08:10:36;;;;;;;12.40;7.07;;;;;;;16.50;65.40;95152.09;5028429;28;20606;-76
2022/05/01 08:13:04;;;;;;;9.10;7.00;;;;;;;16.62;64.68;95150.19;5033138;28;20245;-80
2022/05/01 08:15:31;;;;;;;9.00;6.90;;;;;;;16.71;63.86;95142.69;5030400;28;20210;-80
2022/05/01 08:21:05;;;;;;;7.87;6.90;;;;;;;16.92;63.76;95134.81;5034544;28;20206;-81
2022/05/01 08:23:30;;;;;;;10.13;6.80;;;;;;;16.98;60.45;95141.69;5026372;28;20793;-81
2022/05/01 08:26:02;;;;;;;10.60;6.80;;;;;;;17.07;62.55;95133.38;5026079;28;20218;-83
2022/05/01 08:28:29;;;;;;;13.60;6.63;;;;;;;17.05;60.46;95133.66;5024603;28;20568;-84
2022/05/01 08:30:56;;;;;;;10.23;7.27;;;;;;;17.15;59.83;95132.94;5026891;28;20195;-81
2022/05/01 08:33:23;;;;;;;13.27;6.20;;;;;;;17.30;59.54;95122.59;5027482;28;20206;-80
2022/05/01 08:35:51;;;;;;;7.73;6.20;;;;;;;17.38;56.61;95119.50;5027808;28;20260;-82
2022/05/01 08:38:20;;;;;;;7.17;6.43;;;;;;;17.40;57.72;95122.72;5024965;28;20203;-80
2022/05/01 08:40:50;;;;;;;9.77;6.00;;;;;;;17.52;57.00;95137.28;5028550;28;20194;-75
2022/05/01 08:43:18;;;;;;;9.50;6.50;;;;;;;17.67;55.90;95127.97;5020808;28;20202;-80
2022/05/01 08:45:55;;;;;;;10.77;6.60;;;;;;;17.76;55.61;95121.22;5024036;28;20728;-82
2022/05/01 08:48:30;;;;;;;8.90;6.70;;;;;;;17.76;55.18;95108.84;5028890;28;20731;-80
2022/05/01 08:51:00;;;;;;;7.57;5.70;;;;;;;17.74;53.05;95123.31;5023611;28;20554;-81
2022/05/01 08:53:30;;;;;;;12.45;5.78;;;;;;;17.50;53.01;95109.66;5027969;28;20205;-82
2022/05/01 08:55:57;;;;;;;7.57;5.10;;;;;;;17.47;53.41;95097.81;5028136;28;20599;-80
2022/05/01 08:58:30;;;;;;;11.80;5.40;;;;;;;17.62;54.66;95094.53;5024947;28;20195;-81
2022/05/01 09:00:58;;;;;;;8.80;4.73;;;;;;;17.77;51.89;95101.75;5022262;28;20210;-81
2022/05/01 09:03:25;;;;;;;10.32;5.20;;;;;;;18.06;51.39;95095.16;5019808;28;20199;-75
2022/05/01 09:05:52;;;;;;;5.45;4.75;;;;;;;18.09;46.91;95094.63;5022891;28;20215;-75
2022/05/01 09:08:24;;;;;;;4.65;3.83;;;;;;;18.08;46.58;95075.44;5026457;28;20203;-89
2022/05/01 09:10:51;;;;;;;4.40;4.00;;;;;;;18.23;46.72;95076.56;5025904;28;20207;-82
2022/05/01 09:13:23;;;;;;;5.53;4.32;;;;;;;18.31;48.19;95076.06;5030208;28;20739;-81
2022/05/01 09:15:50;;;;;;;4.05;3.65;;;;;;;18.53;47.65;95079.38;5031207;28;20206;-81
2022/05/01 09:18:16;;;;;;;5.15;3.83;;;;;;;18.67;46.36;95073.38;5027752;28;20207;-82
2022/05/01 09:21:02;;;;;;;4.65;3.90;;;;;;;18.88;46.52;95068.19;5030822;28;20194;-82
2022/05/01 09:23:38;;;;;;;11.82;4.30;;;;;;;18.95;46.22;95059.00;5028117;28;20207;-78
2022/05/01 09:26:09;;;;;;;5.40;4.05;;;;;;;19.17;44.96;95053.50;5030356;28;20254;-85
2022/05/01 09:28:36;;;;;;;7.50;3.50;;;;;;;19.12;43.58;95046.38;5026167;28;20210;-84
2022/05/01 09:31:04;;;;;;;6.85;3.58;;;;;;;19.02;42.29;95067.44;5027308;28;20206;-85
2022/05/01 09:33:31;;;;;;;3.88;3.47;;;;;;;19.03;41.53;95058.47;5028929;28;20215;-86
2022/05/01 09:35:58;;;;;;;7.03;3.47;;;;;;;19.08;42.38;95044.50;5027614;28;20198;-81
2022/05/01 09:38:26;;;;;;;7.75;3.22;;;;;;;19.15;43.23;95040.59;5031844;28;20214;-82
2022/05/01 09:40:58;;;;;;;3.92;3.55;;;;;;;19.09;41.87;95054.00;5031301;28;20285;-81
2022/05/01 09:43:38;;;;;;;3.95;3.55;;;;;;;18.58;43.21;95037.28;5031971;28;20203;-77
2022/05/01 09:46:16;;;;;;;5.60;3.85;;;;;;;18.65;44.99;95030.72;5030672;28;20338;-84
2022/05/01 09:48:45;;;;;;;7.07;3.80;;;;;;;18.83;44.72;95040.00;5027763;28;20206;-84
2022/05/01 09:51:16;;;;;;;6.10;3.47;;;;;;;18.97;43.34;95033.19;5027563;28;20194;-82
2022/05/01 09:53:43;;;;;;;5.00;2.90;;;;;;;19.12;42.45;95011.34;5031851;28;20193;-85
2022/05/01 09:56:12;;;;;;;5.13;3.25;;;;;;;19.44;40.70;95024.31;5022895;28;20240;-83
2022/05/01 09:58:43;;;;;;;4.18;3.08;;;;;;;19.58;39.56;95018.25;5028591;28;20213;-83
2022/05/01 10:01:11;;;;;;;3.45;3.10;;;;;;;19.83;38.95;95023.47;5034700;28;20233;-82
2022/05/01 10:03:42;;;;;;;5.05;3.10;;;;;;;19.81;39.32;95016.88;5023637;28;20290;-85
2022/05/01 10:06:11;;;;;;;3.45;2.88;;;;;;;19.94;39.69;95016.34;5023352;28;20230;-82
2022/05/01 10:08:40;;;;;;;5.78;3.28;;;;;;;20.18;39.17;94998.06;5019178;28;20206;-81
2022/05/01 10:11:08;;;;;;;3.97;3.20;;;;;;;20.38;38.07;95012.03;5022261;28;20207;-86
2022/05/01 10:13:37;;;;;;;4.35;3.00;;;;;;;20.90;36.48;95010.72;5026219;28;20293;-79
2022/05/01 10:16:07;;;;;;;5.45;3.05;;;;;;;20.85;38.54;95008.91;5021295;28;20195;-77
2022/05/01 10:18:36;;;;;;;4.47;3.10;;;;;;;21.09;36.76;95006.44;5022206;28;20772;-78
2022/05/01 10:21:05;;;;;;;7.43;2.65;;;;;;;21.36;37.52;95006.75;5023163;28;20206;-80
2022/05/01 10:23:32;;;;;;;3.80;2.97;;;;;;;21.57;36.93;94998.66;5029260;28;20194;-77
2022/05/01 10:26:06;;;;;;;3.60;2.97;;;;;;;21.81;36.34;95002.16;5024219;28;20223;-79
2022/05/01 10:28:53;;;;;;;8.35;2.83;;;;;;;22.04;36.98;95010.16;5031499;28;20203;-84
2022/05/01 10:34:33;;;;;;;4.22;3.20;;;;;;;22.60;33.90;94985.66;5026183;28;20201;-80
2022/05/01 10:37:21;;;;;;;5.57;3.08;;;;;;;22.95;34.65;94984.41;5023946;28;20334;-79
2022/05/01 10:39:50;;;;;;;8.32;3.60;;;;;;;23.18;33.38;94983.56;5025187;28;20194;-80
2022/05/01 10:42:34;;;;;;;3.45;3.05;;;;;;;23.27;33.19;94984.47;5021017;28;20227;-78
2022/05/01 10:45:25;;;;;;;3.50;3.10;;;;;;;23.20;33.17;94975.31;5026384;28;20195;-78
2022/05/01 10:47:54;;;;;;;3.83;3.17;;;;;;;22.99;32.69;94959.72;5024027;28;20194;-80
2022/05/01 10:50:22;;;;;;;4.05;3.40;;;;;;;23.01;33.65;94960.22;5023696;28;20198;-79
2022/05/01 10:53:04;;;;;;;5.63;3.20;;;;;;;22.84;33.22;94957.28;5024773;28;20662;-79
2022/05/01 10:55:42;;;;;;;3.33;2.97;;;;;;;22.86;33.14;94960.41;5017255;28;20230;-80
2022/05/01 10:58:20;;;;;;;5.22;3.25;;;;;;;22.67;34.91;94964.13;5021261;28;20931;-80
2022/05/01 11:00:49;;;;;;;6.10;3.00;;;;;;;22.74;34.18;94965.34;5024428;28;20911;-81
2022/05/01 11:03:24;;;;;;;4.03;2.70;;;;;;;22.61;34.28;94958.88;5023983;28;20206;-80
2022/05/01 11:05:55;;;;;;;6.65;3.35;;;;;;;22.92;33.99;94950.53;5025241;28;20276;-78
2022/05/01 11:08:28;;;;;;;4.60;2.97;;;;;;;23.02;34.42;94953.84;5017464;28;20626;-78
2022/05/01 11:10:58;;;;;;;3.20;2.90;;;;;;;23.20;32.63;94951.44;5022905;28;20276;-75
2022/05/01 11:13:29;;;;;;;6.10;3.00;;;;;;;23.44;33.35;94946.81;5023365;28;20704;-83
2022/05/01 11:15:57;;;;;;;4.47;2.80;;;;;;;23.64;32.74;94944.63;5028152;28;20195;-78
2022/05/01 11:18:31;;;;;;;4.38;2.60;;;;;;;23.83;32.73;94941.13;5020103;28;20682;-77
2022/05/01 11:21:32;;;;;;;6.03;3.60;;;;;;;24.15;32.44;94944.53;5018129;28;20210;-77
2022/05/01 11:24:00;;;;;;;6.80;2.92;;;;;;;24.43;30.96;94947.16;5018707;28;20226;-77
2022/05/01 11:26:27;;;;;;;3.03;2.63;;;;;;;23.86;31.21;94938.66;5017222;28;20229;-77
2022/05/01 11:28:56;;;;;;;6.45;2.55;;;;;;;23.16;31.57;94944.06;5020813;28;20195;-77
2022/05/01 11:31:48;;;;;;;4.15;2.70;;;;;;;22.92;32.54;94939.91;5018126;28;20256;-78
2022/05/01 11:34:49;;;;;;;4.05;3.05;;;;;;;22.60;33.29;94930.78;5020392;28;20197;-77
2022/05/01 11:37:16;;;;;;;9.05;2.90;;;;;;;22.40;32.71;94927.63;5021033;28;20286;-79
2022/05/01 11:40:16;;;;;;;5.18;2.78;;;;;;;21.94;34.52;94922.09;5020090;28;20195;-77
2022/05/01 11:42:43;;;;;;;6.82;3.25;;;;;;;21.88;34.54;94917.91;5018463;28;20286;-77
2022/05/01 11:45:11;;;;;;;5.10;3.00;;;;;;;21.46;34.61;94914.09;5020102;28;20210;-78
2022/05/01 11:47:41;;;;;;;6.47;3.03;;;;;;;21.37;35.01;94912.31;5020781;28;20211;-78
2022/05/01 11:50:18;;;;;;;3.45;2.80;;;;;;;21.77;34.30;94913.78;5019612;28;20292;-77
2022/05/01 11:52:50;;;;;;;3.10;2.80;;;;;;;22.10;34.39;94902.31;5017140;28;20682;-78
2022/05/01 11:55:19;;;;;;;5.85;3.28;;;;;;;22.14;33.97;94905.97;5020045;28;20278;-78
2022/05/01 12:03:30;;;;;;;6.75;3.00;;;;;;;21.59;36.15;94896.00;5017598;28;20210;-78
2022/05/01 12:05:57;;;;;;;5.70;2.70;;;;;;;21.31;36.51;94893.06;5021807;28;20298;-77
2022/05/01 12:08:24;;;;;;;4.82;2.80;;;;;;;21.10;36.83;94888.22;5019645;28;20615;-77